Airfield :
LOGIN :

Register | Disclaimer

   EN    FR    IT 

 










Legend :    VFR   Marginal VFR   IFR   Intensive IFR   Very Intensive IFR
Visi :
Ceiling :
>= 8 km
>= 3000ft
5 to 8 km
1000 to 3000 ft
1500m to 5 km
500 to 1000 ft
800 to 1500m
200 to 500 ft
< 800m
< 200 ft
Symbols :   Thunderstorms  Fog  Heavy snow  Heavy precipitations  Wind > 20 kt
SIGMETs :     Misc.  Thunderstorms  Icing  Turbulence  Mountain Waves  Volcanic Ashes






- Airport Elevation : 78 ft
- IATA code : LED


ULLI - Pulkovo

CURRENT METAR :
  • 031930Z 28008MPS 9999 SCT021CB BKN045 02/M01 Q0994 R28L/190055 NOSIG

EXPIRED METARs :
  • 031900Z 27008MPS 9999 FEW021CB BKN043 03/M00 Q0993 R28L/190055 NOSIG
  • 031830Z 25005MPS 210V280 9999 SCT020CB BKN036 03/00 Q0992 R28L/190055 NOSIG
  • 031800Z 25005MPS 210V280 9999 SCT020CB BKN036 03/00 Q0992 R28L/190055 NOSIG
  • 031730Z 25005MPS 220V280 9999 SCT020CB BKN036 03/00 Q0991 R28L/290050 TEMPO 24010G18MPS
  • 031700Z 25005MPS 210V280 9999 SCT020CB BKN036 03/M00 Q0990 R28L/290050 TEMPO 24010G18MPS

TAF TAF ULLI
Valid from the 03 at 18:00 until the 04 at 18:00 UTC


031657Z 0318/0418 25007G13MPS 6000 BKN011 BKN020
TEMPO 0318/0324 27010G17MPS 3100 -SHSNRA BKN010 BKN017CB
TEMPO 0400/0406 3100 -SHSNRA BKN011 BKN020CB
TEMPO 0406/0418 27009G16MPS 3100 -SHSNRA BKN011 BKN020CB



MET'MAP, your aeronautical weather chart ! - Copyright ORBIFLY December 2007 - Disclaimer

ORBIFLY MET'MAP TEAM :

Programming & Development : Alexandra Zaïnal
Concept & original design : Baudouin d'Aumeries
Assistance for programming : Marc-Olivier Méhu
Technical & hardware support : Manuel Goepfert

Contact : metmap@orbifly.com




SOURCES & CREDITS :

   NOAA